Time;durP1;ratioP1;P1;durP2;ratioP2;P2;SDS_P1;SDS_P2;PMS_P1;PMS_P2;Temp;Humidity;BMP_temperature;BMP_pressure;BME280_temperature;BME280_humidity;BME280_pressure;Samples;Min_cycle;Max_cycle;Signal;HPM_P1;HPM_P2
2024/05/03 00:00:27;;;;;;;;;;;13.90;99.90;;;;;;1786965;79;20520;-64
2024/05/03 00:02:55;;;;;;;;;;;13.90;99.90;;;;;;1781442;79;20338;-64
2024/05/03 00:05:21;;;;;;;;;;;13.80;99.90;;;;;;1780842;79;20174;-64
2024/05/03 00:07:49;;;;;;;;;;;13.90;99.90;;;;;;1784534;79;20176;-64
2024/05/03 00:10:16;;;;;;;;;;;13.90;99.90;;;;;;1774794;79;20238;-65
2024/05/03 00:12:43;;;;;;;;;;;13.90;99.90;;;;;;1782258;79;20162;-64
2024/05/03 00:15:10;;;;;;;;;;;13.80;99.90;;;;;;1776216;79;20142;-64
2024/05/03 00:17:36;;;;;;;;;;;13.70;99.90;;;;;;1776694;79;20171;-64
2024/05/03 00:20:04;;;;;;;;;;;13.70;99.90;;;;;;1777026;79;20175;-64
2024/05/03 00:22:30;;;;;;;;;;;13.60;99.90;;;;;;1789404;79;20182;-64
2024/05/03 00:24:57;;;;;;;;;;;13.60;99.90;;;;;;1781491;79;20243;-64
2024/05/03 00:27:24;;;;;;;;;;;13.60;99.90;;;;;;1779886;79;20228;-64
2024/05/03 00:29:51;;;;;;;;;;;13.50;99.90;;;;;;1779992;79;20220;-64
2024/05/03 00:32:18;;;;;;;;;;;13.50;99.90;;;;;;1774931;79;20172;-65
2024/05/03 00:34:45;;;;;;;;;;;13.40;99.90;;;;;;1775418;79;20129;-64
2024/05/03 00:37:11;;;;;;;;;;;13.30;99.90;;;;;;1778263;79;20179;-64
2024/05/03 00:39:38;;;;;;;;;;;13.40;99.90;;;;;;1781833;79;20212;-64
2024/05/03 00:42:05;;;;;;;;;;;13.30;99.90;;;;;;1782762;79;20179;-64
2024/05/03 00:44:34;;;;;;;;;;;13.40;99.90;;;;;;1783283;79;20229;-64
2024/05/03 00:47:00;;;;;;;;;;;13.30;99.90;;;;;;1776196;79;20191;-64
2024/05/03 00:49:27;;;;;;;;;;;13.40;99.90;;;;;;1782147;79;20179;-64
2024/05/03 00:51:55;;;;;;;;;;;13.40;99.90;;;;;;1780176;79;20175;-64
2024/05/03 00:54:22;;;;;;;;;;;13.40;99.90;;;;;;1790699;79;20209;-65
2024/05/03 00:56:49;;;;;;;;;;;13.50;99.90;;;;;;1779407;79;20235;-65
2024/05/03 00:59:16;;;;;;;;;;;13.50;99.90;;;;;;1785410;79;20219;-65
2024/05/03 01:01:43;;;;;;;;;;;13.50;99.90;;;;;;1781955;79;20279;-64
2024/05/03 01:04:10;;;;;;;;;;;13.50;99.90;;;;;;1785184;79;20231;-64
2024/05/03 01:06:37;;;;;;;;;;;13.50;99.90;;;;;;1779451;79;20175;-64
2024/05/03 01:09:04;;;;;;;;;;;13.50;99.90;;;;;;1785581;79;20199;-64
2024/05/03 01:11:31;;;;;;;;;;;13.40;99.90;;;;;;1777223;79;20252;-64
2024/05/03 01:13:58;;;;;;;;;;;13.40;99.90;;;;;;1789050;79;20180;-64
2024/05/03 01:16:25;;;;;;;;;;;13.40;99.90;;;;;;1783379;79;20195;-63
2024/05/03 01:18:52;;;;;;;;;;;13.40;99.90;;;;;;1782463;79;20187;-64
2024/05/03 01:21:19;;;;;;;;;;;13.50;99.90;;;;;;1777018;79;20183;-65
2024/05/03 01:23:47;;;;;;;;;;;13.50;99.90;;;;;;1791832;79;20185;-65
2024/05/03 01:26:14;;;;;;;;;;;13.50;99.90;;;;;;1784983;79;20133;-65
2024/05/03 01:28:40;;;;;;;;;;;13.50;99.90;;;;;;1789458;79;20289;-65
2024/05/03 01:31:07;;;;;;;;;;;13.40;99.90;;;;;;1784006;79;20179;-65
2024/05/03 01:33:34;;;;;;;;;;;13.50;99.90;;;;;;1781576;78;20186;-63
2024/05/03 01:36:01;;;;;;;;;;;13.50;99.90;;;;;;1792478;78;20203;-64
2024/05/03 01:38:28;;;;;;;;;;;13.40;99.90;;;;;;1793714;79;20177;-66
2024/05/03 01:40:54;;;;;;;;;;;13.40;99.90;;;;;;1793565;79;20171;-64
2024/05/03 01:43:21;;;;;;;;;;;13.40;99.90;;;;;;1787629;79;20164;-64
2024/05/03 01:45:48;;;;;;;;;;;13.30;99.90;;;;;;1782142;79;20464;-65
2024/05/03 01:48:15;;;;;;;;;;;13.30;99.90;;;;;;1788083;79;20171;-64
2024/05/03 01:50:42;;;;;;;;;;;13.20;99.90;;;;;;1790513;79;20463;-65
2024/05/03 01:53:10;;;;;;;;;;;13.20;99.90;;;;;;1783046;79;20176;-65
2024/05/03 01:55:37;;;;;;;;;;;13.20;99.90;;;;;;1793283;79;20154;-65
2024/05/03 01:58:04;;;;;;;;;;;13.10;99.90;;;;;;1781735;79;20137;-64
2024/05/03 02:00:31;;;;;;;;;;;13.10;99.90;;;;;;1789773;79;20210;-64
2024/05/03 02:02:57;;;;;;;;;;;13.10;99.90;;;;;;1785777;79;20128;-65
2024/05/03 02:05:24;;;;;;;;;;;13.10;99.90;;;;;;1788771;79;20120;-65
2024/05/03 02:07:51;;;;;;;;;;;13.00;99.90;;;;;;1788942;79;20192;-64
2024/05/03 02:10:18;;;;;;;;;;;13.10;99.90;;;;;;1785640;79;20179;-64
2024/05/03 02:12:44;;;;;;;;;;;13.00;99.90;;;;;;1786554;79;20283;-65
2024/05/03 02:15:11;;;;;;;;;;;13.00;99.90;;;;;;1787992;79;20221;-64
2024/05/03 02:17:38;;;;;;;;;;;13.10;99.90;;;;;;1790859;79;20433;-65
2024/05/03 02:20:05;;;;;;;;;;;13.10;99.90;;;;;;1784208;79;20128;-64
2024/05/03 02:22:32;;;;;;;;;;;13.00;99.90;;;;;;1788571;79;20218;-65
2024/05/03 02:24:59;;;;;;;;;;;13.00;99.90;;;;;;1791864;78;20118;-64
2024/05/03 02:27:26;;;;;;;;;;;13.00;99.90;;;;;;1780911;79;20191;-65
2024/05/03 02:29:52;;;;;;;;;;;12.90;99.90;;;;;;1781652;79;20214;-64
2024/05/03 02:32:19;;;;;;;;;;;13.00;99.90;;;;;;1784974;79;20160;-65
2024/05/03 02:34:46;;;;;;;;;;;12.90;99.90;;;;;;1776867;79;20920;-65
2024/05/03 02:37:13;;;;;;;;;;;12.90;99.90;;;;;;1786467;79;20183;-64
2024/05/03 02:39:40;;;;;;;;;;;12.90;99.90;;;;;;1783526;79;20373;-65
2024/05/03 02:42:07;;;;;;;;;;;12.90;99.90;;;;;;1795530;79;20480;-64
2024/05/03 02:44:34;;;;;;;;;;;13.00;99.90;;;;;;1776177;79;20120;-64
2024/05/03 02:47:01;;;;;;;;;;;12.90;99.90;;;;;;1784541;79;20522;-64
2024/05/03 02:49:27;;;;;;;;;;;12.90;99.90;;;;;;1793893;79;20172;-65
2024/05/03 02:51:54;;;;;;;;;;;12.90;99.90;;;;;;1790722;79;20396;-64
2024/05/03 02:54:21;;;;;;;;;;;12.70;99.90;;;;;;1780300;79;20279;-65
2024/05/03 02:56:50;;;;;;;;;;;12.80;99.90;;;;;;1778602;79;20191;-64
2024/05/03 02:59:16;;;;;;;;;;;12.70;99.90;;;;;;1780419;79;20172;-64
2024/05/03 03:01:43;;;;;;;;;;;12.80;99.90;;;;;;1785578;79;20190;-64
2024/05/03 03:04:10;;;;;;;;;;;12.70;99.90;;;;;;1790546;79;20203;-65
2024/05/03 03:06:37;;;;;;;;;;;12.70;99.90;;;;;;1790334;79;20171;-64
2024/05/03 03:09:04;;;;;;;;;;;12.60;99.90;;;;;;1781212;79;20196;-64
2024/05/03 03:11:31;;;;;;;;;;;12.70;99.90;;;;;;1789107;79;20234;-65
2024/05/03 03:13:58;;;;;;;;;;;12.70;99.90;;;;;;1783583;79;20175;-65
2024/05/03 03:16:24;;;;;;;;;;;12.60;99.90;;;;;;1795442;79;20210;-65
2024/05/03 03:18:53;;;;;;;;;;;12.60;99.90;;;;;;1793288;79;20177;-65
2024/05/03 03:21:20;;;;;;;;;;;12.60;99.90;;;;;;1786184;79;20436;-63
2024/05/03 03:23:47;;;;;;;;;;;12.70;99.90;;;;;;1785267;79;20180;-64
2024/05/03 03:26:14;;;;;;;;;;;12.50;99.90;;;;;;1796357;78;20192;-64
2024/05/03 03:28:40;;;;;;;;;;;12.50;99.90;;;;;;1783292;79;20227;-65
2024/05/03 03:31:08;;;;;;;;;;;12.50;99.90;;;;;;1785657;79;20218;-63
2024/05/03 03:33:36;;;;;;;;;;;12.60;99.90;;;;;;1782372;79;20124;-64
2024/05/03 03:36:03;;;;;;;;;;;12.60;99.90;;;;;;1792344;79;20218;-65
2024/05/03 03:38:30;;;;;;;;;;;12.50;99.90;;;;;;1784531;79;20188;-64
2024/05/03 03:40:57;;;;;;;;;;;12.50;99.90;;;;;;1791584;79;20176;-64
2024/05/03 03:43:24;;;;;;;;;;;12.50;99.90;;;;;;1784289;79;20191;-64
2024/05/03 03:45:55;;;;;;;;;;;12.50;99.90;;;;;;1794212;79;20195;-64
2024/05/03 03:48:20;;;;;;;;;;;12.60;99.90;;;;;;1786109;79;20194;-64
2024/05/03 03:50:46;;;;;;;;;;;12.50;99.90;;;;;;1783568;79;20467;-64
2024/05/03 03:53:13;;;;;;;;;;;12.60;99.90;;;;;;1778542;79;20230;-65
2024/05/03 03:55:40;;;;;;;;;;;12.60;99.90;;;;;;1782686;79;20930;-65
2024/05/03 03:58:07;;;;;;;;;;;12.70;99.90;;;;;;1792685;79;20248;-63
2024/05/03 04:00:34;;;;;;;;;;;12.70;99.90;;;;;;1786966;79;20165;-65
2024/05/03 04:03:02;;;;;;;;;;;12.70;99.90;;;;;;1792788;79;20184;-64
2024/05/03 04:05:29;;;;;;;;;;;12.60;99.90;;;;;;1778162;79;20229;-64
2024/05/03 04:07:56;;;;;;;;;;;12.50;99.90;;;;;;1790688;79;20424;-64
2024/05/03 04:10:23;;;;;;;;;;;12.50;99.90;;;;;;1776475;79;20115;-65
2024/05/03 04:12:49;;;;;;;;;;;12.40;99.90;;;;;;1797490;78;20227;-65
2024/05/03 04:15:16;;;;;;;;;;;12.40;99.90;;;;;;1793709;79;20183;-64
2024/05/03 04:17:43;;;;;;;;;;;12.40;99.90;;;;;;1785996;79;20189;-64
2024/05/03 04:20:10;;;;;;;;;;;12.30;99.90;;;;;;1780186;79;20210;-65
2024/05/03 04:22:36;;;;;;;;;;;12.40;99.90;;;;;;1782873;79;20174;-65
2024/05/03 04:25:04;;;;;;;;;;;12.50;99.90;;;;;;1787078;79;20165;-65
2024/05/03 04:27:32;;;;;;;;;;;12.50;99.90;;;;;;1792267;79;20183;-64
2024/05/03 04:29:59;;;;;;;;;;;12.50;99.90;;;;;;1782382;78;20459;-64
2024/05/03 04:32:26;;;;;;;;;;;12.50;99.90;;;;;;1783591;78;20195;-64
2024/05/03 04:34:54;;;;;;;;;;;12.60;99.90;;;;;;1785709;79;20172;-64
2024/05/03 04:37:21;;;;;;;;;;;12.60;99.90;;;;;;1803007;79;20170;-64
2024/05/03 04:39:48;;;;;;;;;;;12.60;99.90;;;;;;1795461;79;20192;-65
2024/05/03 04:42:15;;;;;;;;;;;12.60;99.90;;;;;;1781699;79;20798;-65
2024/05/03 04:44:42;;;;;;;;;;;12.60;99.90;;;;;;1785555;79;20183;-65
2024/05/03 04:47:10;;;;;;;;;;;12.60;99.90;;;;;;1785214;79;20211;-63
2024/05/03 04:49:36;;;;;;;;;;;12.60;99.90;;;;;;1796773;79;20177;-64
2024/05/03 04:52:03;;;;;;;;;;;12.60;99.90;;;;;;1787384;79;20172;-65
2024/05/03 04:54:30;;;;;;;;;;;12.60;99.90;;;;;;1784886;78;20172;-64
2024/05/03 04:56:57;;;;;;;;;;;12.60;99.90;;;;;;1781234;79;20179;-63
2024/05/03 04:59:24;;;;;;;;;;;12.60;99.90;;;;;;1793620;79;20189;-64
2024/05/03 05:01:50;;;;;;;;;;;12.60;99.90;;;;;;1781933;79;20175;-65
2024/05/03 05:04:17;;;;;;;;;;;12.60;99.90;;;;;;1782369;79;20277;-63
2024/05/03 05:06:44;;;;;;;;;;;12.60;99.90;;;;;;1773203;79;20254;-65
2024/05/03 05:09:12;;;;;;;;;;;12.50;99.90;;;;;;1791975;79;20210;-65
2024/05/03 05:11:38;;;;;;;;;;;12.60;99.90;;;;;;1788281;79;20208;-64
2024/05/03 05:14:05;;;;;;;;;;;12.60;99.90;;;;;;1782278;79;20180;-64
2024/05/03 05:16:32;;;;;;;;;;;12.60;99.90;;;;;;1784988;79;20285;-64
2024/05/03 05:18:59;;;;;;;;;;;12.60;99.90;;;;;;1791767;79;20177;-65
2024/05/03 05:22:11;;;;;;;;;;;12.60;99.90;;;;;;1781317;79;20858;-65
2024/05/03 05:23:54;;;;;;;;;;;12.60;99.90;;;;;;1763248;79;20133;-63
2024/05/03 05:26:21;;;;;;;;;;;12.60;99.90;;;;;;1780725;79;21249;-64
2024/05/03 05:28:48;;;;;;;;;;;12.60;99.90;;;;;;1787399;79;20193;-64
2024/05/03 05:31:15;;;;;;;;;;;12.60;99.90;;;;;;1786262;79;20706;-64
2024/05/03 05:33:42;;;;;;;;;;;12.50;99.90;;;;;;1780518;79;20440;-64
2024/05/03 05:36:10;;;;;;;;;;;12.60;99.90;;;;;;1781793;79;20243;-64
2024/05/03 05:38:36;;;;;;;;;;;12.50;99.90;;;;;;1782151;79;20187;-63
2024/05/03 05:41:03;;;;;;;;;;;12.40;99.90;;;;;;1778472;79;20183;-63
2024/05/03 05:43:30;;;;;;;;;;;12.50;99.90;;;;;;1801659;79;20817;-64
2024/05/03 05:45:57;;;;;;;;;;;12.50;99.90;;;;;;1787180;79;20186;-64
2024/05/03 05:48:24;;;;;;;;;;;12.50;99.90;;;;;;1780819;79;20521;-63
2024/05/03 05:50:50;;;;;;;;;;;12.60;99.90;;;;;;1781141;79;20258;-65
2024/05/03 05:53:17;;;;;;;;;;;12.60;99.90;;;;;;1781211;79;20180;-65
2024/05/03 05:55:44;;;;;;;;;;;12.60;99.90;;;;;;1793292;79;20235;-65
2024/05/03 05:58:12;;;;;;;;;;;12.50;99.90;;;;;;1790604;79;20209;-64
2024/05/03 06:00:39;;;;;;;;;;;12.60;99.90;;;;;;1788176;79;20224;-65
2024/05/03 06:03:06;;;;;;;;;;;12.60;99.90;;;;;;1783746;79;20585;-63
2024/05/03 06:05:33;;;;;;;;;;;12.70;99.90;;;;;;1784889;79;20184;-64
2024/05/03 06:08:00;;;;;;;;;;;12.60;99.90;;;;;;1782684;79;20439;-65
2024/05/03 06:10:26;;;;;;;;;;;12.60;99.90;;;;;;1781956;79;20241;-64
2024/05/03 06:12:53;;;;;;;;;;;12.60;99.90;;;;;;1781619;79;20171;-64
2024/05/03 06:15:20;;;;;;;;;;;12.60;99.90;;;;;;1786293;79;20176;-64
2024/05/03 06:17:47;;;;;;;;;;;12.70;99.90;;;;;;1774466;79;20227;-65
2024/05/03 06:20:14;;;;;;;;;;;12.60;99.90;;;;;;1790779;79;20521;-64
2024/05/03 06:22:43;;;;;;;;;;;12.60;99.90;;;;;;1781858;79;20262;-64
2024/05/03 06:25:09;;;;;;;;;;;12.50;99.90;;;;;;1783703;79;20195;-64
2024/05/03 06:27:37;;;;;;;;;;;12.50;99.90;;;;;;1772463;79;20175;-63
2024/05/03 06:30:04;;;;;;;;;;;12.60;99.90;;;;;;1786254;78;20484;-64
2024/05/03 06:32:31;;;;;;;;;;;12.70;99.90;;;;;;1782665;79;20466;-64
2024/05/03 06:34:58;;;;;;;;;;;12.70;99.90;;;;;;1771233;79;20179;-64
2024/05/03 06:37:26;;;;;;;;;;;12.70;99.90;;;;;;1782312;79;20159;-64
2024/05/03 06:39:53;;;;;;;;;;;12.70;99.90;;;;;;1771597;79;20180;-64
2024/05/03 06:42:20;;;;;;;;;;;12.80;99.90;;;;;;1781590;79;20226;-65
2024/05/03 06:44:47;;;;;;;;;;;12.80;99.90;;;;;;1800302;79;20185;-65
2024/05/03 06:47:14;;;;;;;;;;;12.80;99.90;;;;;;1782237;79;20227;-65
2024/05/03 06:49:40;;;;;;;;;;;12.80;99.90;;;;;;1791675;79;20883;-63
2024/05/03 06:52:07;;;;;;;;;;;12.70;99.90;;;;;;1791188;79;20242;-65
2024/05/03 06:54:34;;;;;;;;;;;12.60;99.90;;;;;;1789808;78;20464;-64
2024/05/03 06:57:01;;;;;;;;;;;12.70;99.90;;;;;;1795860;79;20185;-65
2024/05/03 06:59:28;;;;;;;;;;;12.80;99.90;;;;;;1793370;79;20158;-63
2024/05/03 07:01:55;;;;;;;;;;;12.80;99.90;;;;;;1782585;79;20178;-64
2024/05/03 07:04:22;;;;;;;;;;;12.90;99.90;;;;;;1786317;79;20175;-65
2024/05/03 07:06:49;;;;;;;;;;;12.90;99.90;;;;;;1793893;79;20207;-64
2024/05/03 07:09:16;;;;;;;;;;;13.00;99.90;;;;;;1784453;79;20183;-64
2024/05/03 07:11:43;;;;;;;;;;;12.90;99.90;;;;;;1789041;79;20187;-65
2024/05/03 07:14:10;;;;;;;;;;;12.90;99.90;;;;;;1781515;79;20195;-65
2024/05/03 07:16:36;;;;;;;;;;;13.00;99.90;;;;;;1775319;79;20276;-65
2024/05/03 07:19:03;;;;;;;;;;;13.00;99.90;;;;;;1781442;79;20253;-65
2024/05/03 07:21:30;;;;;;;;;;;13.10;99.90;;;;;;1778035;79;20176;-63
2024/05/03 07:23:57;;;;;;;;;;;13.20;99.90;;;;;;1788478;79;21048;-64
2024/05/03 07:26:26;;;;;;;;;;;13.20;99.90;;;;;;1796892;79;20175;-64
2024/05/03 07:28:57;;;;;;;;;;;13.10;99.90;;;;;;1782052;79;20206;-64
2024/05/03 07:31:22;;;;;;;;;;;13.00;99.90;;;;;;1786377;79;20136;-64
2024/05/03 07:33:49;;;;;;;;;;;13.00;99.90;;;;;;1787531;79;20185;-64
2024/05/03 07:36:16;;;;;;;;;;;12.90;99.90;;;;;;1785496;79;20191;-65
2024/05/03 07:38:43;;;;;;;;;;;12.90;99.90;;;;;;1801450;78;20287;-65
2024/05/03 07:41:10;;;;;;;;;;;13.10;99.90;;;;;;1788953;79;20119;-63
2024/05/03 07:43:36;;;;;;;;;;;13.20;99.90;;;;;;1802411;78;20202;-63
2024/05/03 07:46:03;;;;;;;;;;;13.20;99.90;;;;;;1779785;79;20226;-64
2024/05/03 07:48:30;;;;;;;;;;;13.40;99.90;;;;;;1790784;79;20164;-65
2024/05/03 07:50:57;;;;;;;;;;;13.50;99.90;;;;;;1790407;79;20158;-65
2024/05/03 07:53:24;;;;;;;;;;;13.50;99.90;;;;;;1776587;79;20176;-64
2024/05/03 07:55:50;;;;;;;;;;;13.50;99.90;;;;;;1781330;79;20195;-64
2024/05/03 07:58:17;;;;;;;;;;;13.60;99.90;;;;;;1780022;79;20189;-65
2024/05/03 08:00:44;;;;;;;;;;;13.50;99.90;;;;;;1781678;79;20211;-63
2024/05/03 08:03:11;;;;;;;;;;;13.60;99.90;;;;;;1782557;79;20179;-64
2024/05/03 08:05:39;;;;;;;;;;;13.60;99.90;;;;;;1783549;78;20190;-64
2024/05/03 08:08:06;;;;;;;;;;;13.70;99.90;;;;;;1774047;79;20185;-65
2024/05/03 08:10:32;;;;;;;;;;;13.70;99.90;;;;;;1784830;79;20146;-65
2024/05/03 08:13:00;;;;;;;;;;;13.80;99.90;;;;;;1780531;79;20132;-65
2024/05/03 08:15:26;;;;;;;;;;;13.80;99.90;;;;;;1781408;79;20231;-64
2024/05/03 08:17:53;;;;;;;;;;;14.00;99.90;;;;;;1777484;79;20183;-65
2024/05/03 08:20:20;;;;;;;;;;;14.10;99.90;;;;;;1787044;79;20180;-63
2024/05/03 08:22:47;;;;;;;;;;;14.00;99.90;;;;;;1786592;79;20188;-65
2024/05/03 08:25:14;;;;;;;;;;;14.00;99.90;;;;;;1785175;79;20179;-64
2024/05/03 08:27:40;;;;;;;;;;;13.90;99.90;;;;;;1778264;79;20223;-64
2024/05/03 08:30:08;;;;;;;;;;;13.80;99.90;;;;;;1785479;79;20361;-65
2024/05/03 08:32:35;;;;;;;;;;;13.80;99.90;;;;;;1776262;79;20234;-64
2024/05/03 08:35:02;;;;;;;;;;;13.90;99.90;;;;;;1787271;79;20179;-65
2024/05/03 08:37:29;;;;;;;;;;;14.00;99.90;;;;;;1797023;79;20182;-65
2024/05/03 08:39:55;;;;;;;;;;;14.10;99.90;;;;;;1785401;78;20188;-63
2024/05/03 08:42:41;;;;;;;;;;;14.20;99.90;;;;;;1778222;79;20227;-65
2024/05/03 08:45:08;;;;;;;;;;;14.30;99.90;;;;;;1726006;82;20199;-64
2024/05/03 08:47:37;;;;;;;;;;;14.40;99.90;;;;;;1755950;79;20140;-65
2024/05/03 08:50:07;;;;;;;;;;;14.50;99.90;;;;;;1780965;79;20238;-65
2024/05/03 08:52:35;;;;;;;;;;;14.50;99.90;;;;;;1777807;79;20899;-64
2024/05/03 08:55:03;;;;;;;;;;;14.50;99.90;;;;;;1781330;79;20191;-65
2024/05/03 08:57:31;;;;;;;;;;;14.50;99.90;;;;;;1781208;79;20545;-65
2024/05/03 08:59:58;;;;;;;;;;;14.50;99.90;;;;;;1779954;79;20401;-65
2024/05/03 09:02:24;;;;;;;;;;;14.70;99.90;;;;;;1780503;79;20255;-65
2024/05/03 09:04:53;;;;;;;;;;;14.80;99.90;;;;;;1779585;79;20195;-65
2024/05/03 09:07:21;;;;;;;;;;;15.10;99.90;;;;;;1779841;79;20171;-65
2024/05/03 09:09:50;;;;;;;;;;;15.10;99.90;;;;;;1782172;79;20588;-64
2024/05/03 09:12:20;;;;;;;;;;;15.20;99.90;;;;;;1786385;79;20199;-65
2024/05/03 09:14:46;;;;;;;;;;;15.30;99.90;;;;;;1782016;79;20180;-64
2024/05/03 09:17:12;;;;;;;;;;;15.10;99.90;;;;;;1789093;79;20215;-64
2024/05/03 09:19:40;;;;;;;;;;;15.00;99.90;;;;;;1780633;79;20172;-65
2024/05/03 09:22:06;;;;;;;;;;;14.90;99.90;;;;;;1779447;79;20213;-65
2024/05/03 09:24:33;;;;;;;;;;;14.80;99.90;;;;;;1778087;79;20214;-65
2024/05/03 09:27:00;;;;;;;;;;;14.70;99.90;;;;;;1778876;79;20170;-65
2024/05/03 09:29:27;;;;;;;;;;;14.70;99.90;;;;;;1787247;79;20177;-65
2024/05/03 09:31:54;;;;;;;;;;;14.70;99.90;;;;;;1794803;79;20196;-65
2024/05/03 09:34:21;;;;;;;;;;;14.70;99.90;;;;;;1782224;79;20187;-64
2024/05/03 09:36:53;;;;;;;;;;;14.70;99.90;;;;;;1783257;79;20203;-65
2024/05/03 09:39:17;;;;;;;;;;;14.90;99.90;;;;;;1779915;79;20225;-65
2024/05/03 09:41:43;;;;;;;;;;;15.30;99.90;;;;;;1780514;79;20219;-62
2024/05/03 09:46:59;;;;;;;;;;;15.90;99.90;;;;;;1820372;78;20132;-66
2024/05/03 09:49:34;;;;;;;;;;;16.10;99.90;;;;;;1819668;78;20166;-65
2024/05/03 09:52:04;;;;;;;;;;;16.20;99.90;;;;;;1798654;79;20205;-65
2024/05/03 09:54:32;;;;;;;;;;;16.10;99.90;;;;;;1836341;76;20175;-63
2024/05/03 09:57:01;;;;;;;;;;;16.10;99.90;;;;;;1849117;76;20242;-65
2024/05/03 09:59:28;;;;;;;;;;;15.80;99.90;;;;;;1850635;76;20226;-64
2024/05/03 10:01:55;;;;;;;;;;;15.70;99.90;;;;;;1846588;76;20177;-63
2024/05/03 10:04:22;;;;;;;;;;;15.60;99.90;;;;;;1854602;76;20184;-64
2024/05/03 10:06:49;;;;;;;;;;;15.60;99.90;;;;;;1846524;76;20179;-65
2024/05/03 10:09:16;;;;;;;;;;;15.30;99.90;;;;;;1840404;76;20183;-65
2024/05/03 10:11:43;;;;;;;;;;;15.20;99.90;;;;;;1855834;76;20206;-65
2024/05/03 10:14:11;;;;;;;;;;;15.10;99.90;;;;;;1851536;76;20165;-65
2024/05/03 10:16:38;;;;;;;;;;;15.10;99.90;;;;;;1858355;76;20413;-65
2024/05/03 10:19:06;;;;;;;;;;;15.10;99.90;;;;;;1852759;76;20440;-65
2024/05/03 10:21:40;;;;;;;;;;;15.10;99.90;;;;;;1846894;76;20186;-65
2024/05/03 10:24:08;;;;;;;;;;;15.00;99.90;;;;;;1843261;76;20213;-65
2024/05/03 10:26:38;;;;;;;;;;;14.70;99.90;;;;;;1808990;78;20223;-65
2024/05/03 10:29:05;;;;;;;;;;;14.50;99.90;;;;;;1835629;76;20209;-63
2024/05/03 10:31:34;;;;;;;;;;;14.40;99.90;;;;;;1835852;77;20182;-65
2024/05/03 10:34:01;;;;;;;;;;;14.40;99.90;;;;;;1827742;76;20217;-65
2024/05/03 10:36:27;;;;;;;;;;;14.20;99.90;;;;;;1834481;76;20189;-64
2024/05/03 10:38:54;;;;;;;;;;;14.30;99.90;;;;;;1844952;76;20158;-66
2024/05/03 10:41:21;;;;;;;;;;;14.30;99.90;;;;;;1834467;76;20178;-63
2024/05/03 10:43:48;;;;;;;;;;;14.30;99.90;;;;;;1837531;76;20225;-65
2024/05/03 10:46:16;;;;;;;;;;;14.30;99.90;;;;;;1839189;76;20122;-65
2024/05/03 10:48:44;;;;;;;;;;;14.40;99.90;;;;;;1831624;76;20569;-66
2024/05/03 10:51:11;;;;;;;;;;;14.40;99.90;;;;;;1836021;76;20570;-64
2024/05/03 10:53:38;;;;;;;;;;;14.30;99.90;;;;;;1836068;76;20505;-62
2024/05/03 10:56:07;;;;;;;;;;;14.60;99.90;;;;;;1835565;76;20787;-64
2024/05/03 10:58:33;;;;;;;;;;;15.10;99.90;;;;;;1827837;76;20518;-65
2024/05/03 11:01:00;;;;;;;;;;;15.40;99.90;;;;;;1836659;76;20245;-65
2024/05/03 11:03:27;;;;;;;;;;;15.40;99.90;;;;;;1838584;76;21075;-65
2024/05/03 11:05:57;;;;;;;;;;;15.20;99.90;;;;;;1838973;76;20166;-65
2024/05/03 11:08:25;;;;;;;;;;;15.10;99.90;;;;;;1840254;76;20188;-65
2024/05/03 11:10:52;;;;;;;;;;;15.20;99.90;;;;;;1847573;76;20209;-62
2024/05/03 11:13:19;;;;;;;;;;;15.20;99.90;;;;;;1848384;75;20284;-65
2024/05/03 11:15:46;;;;;;;;;;;15.20;99.90;;;;;;1845436;76;20226;-65
2024/05/03 11:18:12;;;;;;;;;;;15.20;99.90;;;;;;1858196;76;20253;-65
2024/05/03 11:20:39;;;;;;;;;;;15.00;99.90;;;;;;1840376;76;20198;-65
2024/05/03 11:23:09;;;;;;;;;;;14.90;99.90;;;;;;1844952;76;20206;-65
2024/05/03 11:25:44;;;;;;;;;;;14.80;99.90;;;;;;1848879;76;20191;-65
2024/05/03 11:28:11;;;;;;;;;;;14.80;99.90;;;;;;1848695;76;20184;-64
2024/05/03 11:33:25;;;;;;;;;;;14.70;99.90;;;;;;1834932;77;20180;-64
2024/05/03 11:35:52;;;;;;;;;;;14.80;99.90;;;;;;1841452;77;20165;-64
2024/05/03 11:38:19;;;;;;;;;;;15.00;99.90;;;;;;1841333;77;20177;-65
2024/05/03 11:40:46;;;;;;;;;;;15.10;99.90;;;;;;1841402;77;20465;-65
2024/05/03 11:43:12;;;;;;;;;;;15.30;99.90;;;;;;1843101;77;20213;-65
2024/05/03 11:45:39;;;;;;;;;;;15.30;99.90;;;;;;1834304;77;20178;-64
2024/05/03 11:48:06;;;;;;;;;;;15.50;99.90;;;;;;1841648;77;20165;-64
2024/05/03 11:50:33;;;;;;;;;;;15.60;99.90;;;;;;1844114;77;20306;-65
2024/05/03 11:53:00;;;;;;;;;;;15.60;99.90;;;;;;1841261;77;20256;-64
2024/05/03 11:55:26;;;;;;;;;;;15.60;99.90;;;;;;1838802;77;20181;-64
2024/05/03 11:57:53;;;;;;;;;;;15.40;99.90;;;;;;1845367;77;20162;-65
2024/05/03 12:00:20;;;;;;;;;;;15.40;99.10;;;;;;1844238;77;20228;-64
2024/05/03 12:02:47;;;;;;;;;;;15.50;99.90;;;;;;1832233;77;20204;-64
2024/05/03 12:05:13;;;;;;;;;;;15.70;99.90;;;;;;1843448;76;20503;-65
2024/05/03 12:07:40;;;;;;;;;;;16.00;99.80;;;;;;1840765;77;20177;-64
2024/05/03 12:10:07;;;;;;;;;;;16.00;95.20;;;;;;1848287;77;20851;-65
2024/05/03 12:12:34;;;;;;;;;;;15.90;98.10;;;;;;1857721;77;20193;-63
2024/05/03 12:15:01;;;;;;;;;;;15.70;98.00;;;;;;1844437;77;20272;-64
2024/05/03 12:17:27;;;;;;;;;;;15.50;98.00;;;;;;1844413;77;20255;-64
2024/05/03 12:19:54;;;;;;;;;;;15.40;99.50;;;;;;1841693;77;20118;-64
2024/05/03 12:22:21;;;;;;;;;;;15.20;98.50;;;;;;1844581;77;20181;-64
2024/05/03 12:24:48;;;;;;;;;;;15.10;99.90;;;;;;1841655;77;20126;-64
2024/05/03 12:27:15;;;;;;;;;;;15.10;98.80;;;;;;1836324;77;20196;-64
2024/05/03 12:29:41;;;;;;;;;;;15.10;99.90;;;;;;1847994;77;20220;-63
2024/05/03 12:32:08;;;;;;;;;;;15.20;99.40;;;;;;1841121;77;20189;-64
2024/05/03 12:34:35;;;;;;;;;;;15.50;98.90;;;;;;1846918;77;20135;-64
2024/05/03 12:37:02;;;;;;;;;;;16.10;98.30;;;;;;1854450;77;20548;-63
2024/05/03 12:39:29;;;;;;;;;;;16.40;94.90;;;;;;1848001;77;20220;-65
2024/05/03 12:41:55;;;;;;;;;;;16.50;93.10;;;;;;1823786;78;20868;-64
2024/05/03 12:44:22;;;;;;;;;;;16.40;92.70;;;;;;1849051;77;20224;-64
2024/05/03 12:46:49;;;;;;;;;;;16.30;91.10;;;;;;1842157;77;20500;-65
2024/05/03 12:49:16;;;;;;;;;;;16.10;95.30;;;;;;1841086;77;20179;-65
2024/05/03 12:51:42;;;;;;;;;;;15.90;96.30;;;;;;1837905;77;20223;-63
2024/05/03 12:54:09;;;;;;;;;;;15.90;96.40;;;;;;1843850;76;20194;-65
2024/05/03 12:56:36;;;;;;;;;;;15.80;96.70;;;;;;1841062;77;20207;-65
2024/05/03 12:59:03;;;;;;;;;;;15.70;95.40;;;;;;1844103;77;20605;-63
2024/05/03 13:01:30;;;;;;;;;;;15.50;97.20;;;;;;1833569;77;20468;-65
2024/05/03 13:03:57;;;;;;;;;;;15.50;97.90;;;;;;1834197;77;20243;-65
2024/05/03 13:06:23;;;;;;;;;;;15.40;98.10;;;;;;1836750;77;20213;-64
2024/05/03 13:08:50;;;;;;;;;;;15.30;97.30;;;;;;1830708;77;20253;-65
2024/05/03 13:14:03;;;;;;;;;;;15.50;96.40;;;;;;1828240;77;20150;-64
2024/05/03 13:16:29;;;;;;;;;;;15.60;96.00;;;;;;1829718;77;20206;-65
2024/05/03 13:18:56;;;;;;;;;;;15.80;95.50;;;;;;1829190;77;20461;-65
2024/05/03 13:21:23;;;;;;;;;;;15.70;96.50;;;;;;1828604;77;20238;-64
2024/05/03 13:23:50;;;;;;;;;;;15.80;97.20;;;;;;1831203;77;20181;-65
2024/05/03 13:26:17;;;;;;;;;;;15.90;96.20;;;;;;1834727;77;20194;-67
2024/05/03 13:28:43;;;;;;;;;;;16.10;94.80;;;;;;1829671;77;20181;-64
2024/05/03 13:31:10;;;;;;;;;;;16.40;95.40;;;;;;1829715;77;20194;-64
2024/05/03 13:33:37;;;;;;;;;;;16.60;94.10;;;;;;1821796;77;20180;-64
2024/05/03 13:36:04;;;;;;;;;;;16.50;93.90;;;;;;1828277;77;20185;-64
2024/05/03 13:38:31;;;;;;;;;;;16.30;93.40;;;;;;1811630;78;20221;-65
2024/05/03 13:40:58;;;;;;;;;;;16.10;93.00;;;;;;1845526;77;20252;-64
2024/05/03 13:43:24;;;;;;;;;;;16.00;96.20;;;;;;1844728;77;20949;-62
2024/05/03 13:45:51;;;;;;;;;;;15.80;94.90;;;;;;1842804;77;20180;-64
2024/05/03 13:48:18;;;;;;;;;;;15.90;95.90;;;;;;1825762;77;20120;-65
2024/05/03 13:50:45;;;;;;;;;;;16.00;92.30;;;;;;1813034;78;20218;-65
2024/05/03 13:53:12;;;;;;;;;;;16.30;92.60;;;;;;1801517;78;20312;-64
2024/05/03 13:55:38;;;;;;;;;;;16.40;92.80;;;;;;1830660;77;20177;-65
2024/05/03 13:58:05;;;;;;;;;;;16.50;89.80;;;;;;1828469;77;20179;-64
2024/05/03 14:00:32;;;;;;;;;;;16.40;92.30;;;;;;1831932;77;20206;-65
2024/05/03 14:02:59;;;;;;;;;;;16.30;92.10;;;;;;1826578;77;20221;-65
2024/05/03 14:05:26;;;;;;;;;;;16.30;92.00;;;;;;1829209;77;20228;-65
2024/05/03 14:07:53;;;;;;;;;;;16.20;90.50;;;;;;1826386;77;20170;-64
2024/05/03 14:10:20;;;;;;;;;;;16.20;89.40;;;;;;1829639;77;20394;-64
2024/05/03 14:12:47;;;;;;;;;;;16.20;90.90;;;;;;1836136;77;20540;-66
2024/05/03 14:15:13;;;;;;;;;;;16.30;91.00;;;;;;1820496;77;20174;-64
2024/05/03 14:17:40;;;;;;;;;;;16.40;86.90;;;;;;1828123;77;20941;-64
2024/05/03 14:20:10;;;;;;;;;;;16.60;87.60;;;;;;1828356;77;20270;-65
2024/05/03 14:22:37;;;;;;;;;;;16.70;79.30;;;;;;1827582;77;20177;-64